3 – eServices

Baggage tracing
Cargo tracing
Weather
  • METAR

    EFMA 222120Z AUTO 13016G26KT 100V170 9999 SCT022 OVC063 04/M01 Q1008

    EFTU 222120Z AUTO 12009KT 9999 SCT010/// OVC031/// 00/M01 Q1012

    EFHK 222120Z 07007KT 9999 BKN004 BKN009 00/M00 Q1016 TEMPO SCT009

    ESSA 222120Z 13016KT 6000 -RA SCT010 BKN016 02/01 Q1003 R01L/29//62 R01R/29//72 R08/29//71 BECMG BKN008

    ESSB 222120Z AUTO 12020KT 7000 -RA OVC010/// 03/02 Q1004

  • TAF n/a

Flightradar24